Terminal Aerodrome Forecast
Issued by NWS

Home | Current Version | Previous Version | Text Only | Print | Product List | Glossary On
Versions: 1 2 3 4 5 6 7 8 9 10 11 12 13 14 15 16 17 18
443
FTUS44 KTSA 281140
TAFFYV
TAF
KFYV 281140Z 2812/2912 00000KT P6SM SCT035
     FM281400 VRB03KT P6SM FEW020 SCT040
     FM281900 27007KT P6SM SCT050 SCT250
     FM290200 VRB02KT P6SM BKN050=

USA.gov is the U.S. government's official web portal to all federal, state and local government web resources and services.